Time;durP1;ratioP1;P1;durP2;ratioP2;P2;SDS_P1;SDS_P2;PMS_P1;PMS_P2;Temp;Humidity;BMP_temperature;BMP_pressure;BME280_temperature;BME280_humidity;BME280_pressure;Samples;Min_cycle;Max_cycle;Signal;HPM_P1;HPM_P2
2024/04/21 00:03:36;;;;;;;2.00;0.90;;;23.30;44.20;;;;;;10928711;27;20046;-84
2024/04/21 00:08:42;;;;;;;2.92;0.85;;;23.10;45.00;;;;;;10928767;27;20010;-84
2024/04/21 00:13:46;;;;;;;0.93;0.73;;;23.10;44.30;;;;;;10929160;27;20406;-83
2024/04/21 00:18:49;;;;;;;1.48;0.90;;;23.10;44.50;;;;;;10928143;27;20006;-84
2024/04/21 00:23:55;;;;;;;0.80;0.70;;;23.00;44.60;;;;;;10928619;27;20003;-84
2024/04/21 00:28:58;;;;;;;1.38;0.70;;;23.00;46.60;;;;;;10928828;27;20002;-84
2024/04/21 00:34:02;;;;;;;1.83;0.90;;;22.90;50.10;;;;;;10927737;27;20046;-84
2024/04/21 00:39:08;;;;;;;0.90;0.82;;;22.90;51.20;;;;;;10931709;27;20010;-83
2024/04/21 00:44:11;;;;;;;1.25;0.70;;;22.90;51.70;;;;;;10930929;27;20049;-83
2024/04/21 00:49:14;;;;;;;1.10;0.80;;;22.80;44.50;;;;;;10929485;27;20013;-84
2024/04/21 00:54:20;;;;;;;1.65;0.80;;;22.80;44.30;;;;;;10929945;27;20042;-83
2024/04/21 00:59:24;;;;;;;1.20;0.85;;;22.70;44.40;;;;;;10931282;27;20039;-83
2024/04/21 01:04:27;;;;;;;1.40;0.80;;;22.80;44.30;;;;;;10932502;27;20034;-83
2024/04/21 01:09:33;;;;;;;2.35;0.80;;;22.70;44.50;;;;;;10931553;27;20030;-82
2024/04/21 01:14:36;;;;;;;1.58;0.77;;;22.70;44.30;;;;;;10931375;27;20010;-82
2024/04/21 01:19:39;;;;;;;1.08;0.70;;;22.70;44.20;;;;;;10928058;27;20002;-83
2024/04/21 01:24:45;;;;;;;1.25;0.70;;;22.70;44.30;;;;;;10929175;27;20068;-83
2024/04/21 01:29:49;;;;;;;1.48;0.63;;;22.50;44.50;;;;;;10928792;27;20066;-83
2024/04/21 01:34:52;;;;;;;0.95;0.60;;;22.60;44.40;;;;;;10928383;27;20021;-83
2024/04/21 01:39:58;;;;;;;0.75;0.70;;;22.50;44.50;;;;;;10927892;27;20041;-83
2024/04/21 01:45:01;;;;;;;1.42;0.60;;;22.50;44.70;;;;;;10927486;27;20002;-83
2024/04/21 01:50:07;;;;;;;0.73;0.73;;;22.40;44.50;;;;;;10928412;27;20057;-83
2024/04/21 01:55:13;;;;;;;0.60;0.60;;;22.30;44.90;;;;;;10929178;27;20085;-83
2024/04/21 02:00:16;;;;;;;0.82;0.60;;;22.30;45.80;;;;;;10928908;27;20376;-83
2024/04/21 02:05:19;;;;;;;2.30;0.60;;;22.40;49.50;;;;;;10928215;27;20006;-83
2024/04/21 02:10:25;;;;;;;1.27;0.57;;;22.40;46.80;;;;;;10928164;27;20038;-83
2024/04/21 02:15:28;;;;;;;0.98;0.60;;;22.20;44.40;;;;;;10927275;27;20034;-83
2024/04/21 02:20:32;;;;;;;0.70;0.60;;;22.10;44.40;;;;;;10928080;27;20010;-83
2024/04/21 02:25:38;;;;;;;1.05;0.60;;;22.10;44.40;;;;;;10927230;27;20046;-83
2024/04/21 02:30:41;;;;;;;0.60;0.50;;;22.20;44.10;;;;;;10927305;27;20027;-83
2024/04/21 02:35:44;;;;;;;0.88;0.60;;;22.10;44.30;;;;;;10927333;27;20042;-83
2024/04/21 02:40:50;;;;;;;0.55;0.55;;;22.00;44.40;;;;;;10926912;27;20042;-83
2024/04/21 02:45:54;;;;;;;1.15;0.70;;;21.90;44.70;;;;;;10927190;27;20017;-84
2024/04/21 02:50:57;;;;;;;0.73;0.50;;;21.90;45.00;;;;;;10925497;27;20018;-83
2024/04/21 02:56:03;;;;;;;0.55;0.50;;;21.70;44.70;;;;;;10925953;27;20363;-83
2024/04/21 03:01:07;;;;;;;1.15;0.50;;;21.80;44.70;;;;;;10926105;27;20030;-83
2024/04/21 03:06:10;;;;;;;0.93;0.50;;;22.10;46.70;;;;;;10926271;27;20034;-83
2024/04/21 03:11:16;;;;;;;0.60;0.60;;;22.20;45.30;;;;;;10924174;27;20039;-83
2024/04/21 03:16:20;;;;;;;0.75;0.60;;;22.30;45.00;;;;;;10924448;27;20034;-83
2024/04/21 03:21:23;;;;;;;0.95;0.60;;;22.40;44.80;;;;;;10923421;27;20016;-83
2024/04/21 03:26:29;;;;;;;0.60;0.60;;;22.50;46.90;;;;;;10922612;27;20006;-83
2024/04/21 03:31:32;;;;;;;1.30;0.50;;;22.40;45.70;;;;;;10922924;27;20038;-82
2024/04/21 03:36:36;;;;;;;0.50;0.50;;;22.60;45.40;;;;;;10922458;27;20029;-83
2024/04/21 03:41:42;;;;;;;0.40;0.40;;;22.40;44.30;;;;;;10922445;27;20050;-83
2024/04/21 03:46:45;;;;;;;0.75;0.55;;;22.10;45.60;;;;;;10922111;27;20039;-83
2024/04/21 03:51:48;;;;;;;0.40;0.40;;;22.00;45.40;;;;;;10921509;27;20082;-83
2024/04/21 03:56:54;;;;;;;0.70;0.50;;;22.10;45.40;;;;;;10921843;27;20463;-84
2024/04/21 04:01:58;;;;;;;0.70;0.40;;;22.30;45.30;;;;;;10925910;27;20002;-83
2024/04/21 04:07:01;;;;;;;0.60;0.52;;;22.20;46.20;;;;;;10929125;27;20046;-83
2024/04/21 04:12:07;;;;;;;0.63;0.45;;;22.40;44.50;;;;;;10929581;27;20505;-83
2024/04/21 04:17:11;;;;;;;0.60;0.60;;;22.50;44.20;;;;;;10929007;27;20020;-83
2024/04/21 04:22:14;;;;;;;0.80;0.50;;;22.60;43.90;;;;;;10930125;27;20043;-83
2024/04/21 04:27:20;;;;;;;0.60;0.50;;;22.30;46.70;;;;;;10929469;27;20013;-83
2024/04/21 04:32:23;;;;;;;1.48;0.50;;;22.30;53.10;;;;;;10930226;27;20043;-83
2024/04/21 04:37:27;;;;;;;1.17;0.50;;;22.30;47.60;;;;;;10929777;27;20493;-84
2024/04/21 04:42:32;;;;;;;0.60;0.60;;;22.50;49.70;;;;;;10929227;27;20010;-83
2024/04/21 04:47:36;;;;;;;0.73;0.70;;;22.60;53.40;;;;;;10929546;27;20026;-83
2024/04/21 04:52:39;;;;;;;0.50;0.50;;;22.40;45.00;;;;;;10929236;27;20062;-83
2024/04/21 04:57:45;;;;;;;0.68;0.40;;;22.40;47.70;;;;;;10929904;27;20517;-83
2024/04/21 05:02:48;;;;;;;0.55;0.55;;;22.30;45.00;;;;;;10929530;27;20034;-83
2024/04/21 05:07:52;;;;;;;0.73;0.55;;;22.90;43.90;;;;;;10929045;27;20043;-83
2024/04/21 05:12:58;;;;;;;1.02;0.60;;;23.10;44.50;;;;;;10927840;27;20006;-82
2024/04/21 05:18:01;;;;;;;2.67;0.60;;;23.20;45.10;;;;;;10932085;27;20482;-82
2024/04/21 05:23:04;;;;;;;2.50;0.50;;;23.30;44.10;;;;;;10930228;27;19998;-81
2024/04/21 05:28:10;;;;;;;11.15;1.02;;;23.30;43.50;;;;;;10926854;27;20349;-81
2024/04/21 05:33:14;;;;;;;14.52;1.05;;;23.20;46.50;;;;;;10927314;27;20020;-81
2024/04/21 05:38:17;;;;;;;9.55;1.00;;;23.30;44.90;;;;;;10928039;27;20436;-81
2024/04/21 05:43:23;;;;;;;5.55;1.10;;;23.00;49.20;;;;;;10927036;27;20363;-81
2024/04/21 05:48:26;;;;;;;3.13;0.98;;;23.00;45.90;;;;;;10926149;27;20046;-80
2024/04/21 05:53:30;;;;;;;4.20;1.02;;;23.00;46.90;;;;;;10926513;27;20034;-80
2024/04/21 05:58:36;;;;;;;3.97;0.90;;;23.10;45.80;;;;;;10926795;27;20496;-80
2024/04/21 06:03:39;;;;;;;12.07;1.40;;;23.10;46.50;;;;;;10925733;27;20013;-81
2024/04/21 06:08:43;;;;;;;16.92;1.50;;;22.90;42.60;;;;;;10924303;27;20014;-80
2024/04/21 06:13:50;;;;;;;41.30;2.47;;;23.00;43.90;;;;;;10924662;27;20003;-80
2024/04/21 06:18:53;;;;;;;12.10;1.83;;;23.00;42.70;;;;;;10933314;27;20043;-79
2024/04/21 06:23:57;;;;;;;6.13;1.40;;;22.90;41.90;;;;;;10932715;27;20036;-79
2024/04/21 06:29:04;;;;;;;8.98;1.77;;;23.50;39.30;;;;;;10932575;27;20014;-79
2024/04/21 06:34:08;;;;;;;10.35;1.50;;;23.10;40.30;;;;;;10933066;27;19999;-79
2024/04/21 06:39:11;;;;;;;7.10;1.50;;;23.30;40.80;;;;;;10932699;27;20034;-79
2024/04/21 06:44:18;;;;;;;8.07;1.45;;;23.40;40.90;;;;;;10928957;27;20474;-81
2024/04/21 06:49:21;;;;;;;3.97;1.30;;;23.20;41.20;;;;;;10922926;27;20077;-81
2024/04/21 06:54:24;;;;;;;5.22;1.52;;;23.30;41.50;;;;;;10922849;27;20353;-81
2024/04/21 06:59:30;;;;;;;4.30;1.13;;;23.20;41.70;;;;;;10923822;27;20002;-82
2024/04/21 07:04:34;;;;;;;7.00;1.33;;;23.40;41.30;;;;;;10923575;27;20038;-81
2024/04/21 07:09:40;;;;;;;8.23;1.70;;;23.00;42.30;;;;;;10923052;27;20010;-81
2024/04/21 07:14:46;;;;;;;10.18;2.22;;;22.80;42.80;;;;;;10923482;27;20444;-81
2024/04/21 07:19:49;;;;;;;7.82;2.10;;;23.20;42.00;;;;;;10922746;27;20010;-81
2024/04/21 07:24:53;;;;;;;12.25;2.13;;;23.50;41.50;;;;;;10924747;27;20021;-83
2024/04/21 07:29:59;;;;;;;11.93;2.53;;;23.50;41.30;;;;;;10924146;27;20034;-83
2024/04/21 07:38:16;;;;;;;27.53;2.77;;;;;;;;;;11322106;26;20829;-30
2024/04/21 07:43:19;;;;;;;19.35;2.90;;;21.40;52.70;;;;;;11321252;26;20007;-25
2024/04/21 07:48:23;;;;;;;16.40;2.35;;;20.70;56.30;;;;;;11321839;26;20013;-26
2024/04/21 07:53:28;;;;;;;14.93;2.00;;;20.20;57.30;;;;;;11320850;26;19999;-28
2024/04/21 07:58:32;;;;;;;11.23;2.15;;;19.90;58.10;;;;;;11321029;26;20011;-27
2024/04/21 08:03:35;;;;;;;9.43;2.13;;;20.00;59.50;;;;;;11320626;26;20417;-30
2024/04/21 08:08:43;;;;;;;11.15;2.17;;;20.00;60.20;;;;;;11320646;26;20010;-27
2024/04/21 08:13:46;;;;;;;8.52;1.85;;;20.00;60.60;;;;;;11320353;26;20472;-30
2024/04/21 08:18:49;;;;;;;10.50;1.92;;;20.00;60.60;;;;;;11320355;26;20071;-27
2024/04/21 08:23:55;;;;;;;5.22;1.27;;;20.00;60.50;;;;;;11320045;26;20003;-25
2024/04/21 08:28:58;;;;;;;16.83;2.20;;;20.10;60.40;;;;;;11319988;26;20459;-28
2024/04/21 08:34:02;;;;;;;15.23;1.80;;;20.10;62.20;;;;;;11319664;26;20079;-28
2024/04/21 08:39:08;;;;;;;7.95;1.38;;;20.20;61.80;;;;;;11319639;26;20014;-27
2024/04/21 08:44:14;;;;;;;4.47;1.40;;;20.20;61.50;;;;;;11319439;26;20009;-28
2024/04/21 08:49:17;;;;;;;5.75;1.30;;;20.20;61.60;;;;;;11289349;26;20011;-27
2024/04/21 08:54:25;;;;;;;5.57;1.40;;;20.30;61.20;;;;;;11286932;26;20007;-28
2024/04/21 08:59:28;;;;;;;4.07;1.30;;;20.30;61.80;;;;;;11287179;26;20010;-24
2024/04/21 09:04:32;;;;;;;6.78;1.58;;;20.40;61.80;;;;;;11286794;26;20014;-28
2024/04/21 09:09:37;;;;;;;6.68;1.50;;;20.40;62.00;;;;;;11286954;26;20018;-26
2024/04/21 09:14:44;;;;;;;25.08;4.03;;;20.40;62.10;;;;;;11286422;26;19999;-26
2024/04/21 09:19:49;;;;;;;17.13;3.70;;;20.60;67.30;;;;;;11286552;26;20514;-27
2024/04/21 09:24:55;;;;;;;12.07;3.67;;;20.70;65.70;;;;;;11286029;26;20002;-29
2024/04/21 09:29:58;;;;;;;14.65;3.30;;;20.70;64.00;;;;;;11286265;26;19999;-28
2024/04/21 09:35:02;;;;;;;7.68;2.67;;;20.70;63.60;;;;;;11285888;26;20477;-27
2024/04/21 09:40:10;;;;;;;10.48;2.53;;;20.70;63.60;;;;;;11285834;26;20104;-28
2024/04/21 09:45:13;;;;;;;14.10;2.92;;;20.70;63.50;;;;;;11285729;26;20035;-27
2024/04/21 09:50:16;;;;;;;8.70;2.58;;;20.70;63.40;;;;;;11285468;26;20011;-27
2024/04/21 09:55:23;;;;;;;12.90;2.50;;;20.70;63.40;;;;;;11285249;26;20406;-26
2024/04/21 10:00:26;;;;;;;12.60;2.88;;;20.80;63.40;;;;;;11284148;26;20356;-26
2024/04/21 10:05:30;;;;;;;14.57;2.65;;;20.90;63.40;;;;;;11284964;26;20010;-26
2024/04/21 10:10:38;;;;;;;10.63;2.33;;;20.90;63.40;;;;;;11284978;26;20002;-25
2024/04/21 10:15:41;;;;;;;9.57;2.85;;;20.90;63.40;;;;;;11284700;26;20001;-24
2024/04/21 10:20:44;;;;;;;8.23;2.45;;;20.90;63.10;;;;;;11284647;26;19999;-30
2024/04/21 10:25:50;;;;;;;6.68;2.45;;;20.90;62.80;;;;;;11284507;26;20007;-25
2024/04/21 10:30:53;;;;;;;9.13;2.30;;;20.90;63.00;;;;;;11284459;26;20473;-27
2024/04/21 10:35:57;;;;;;;5.82;1.85;;;20.90;62.90;;;;;;11284195;26;20011;-28
2024/04/21 10:41:03;;;;;;;8.80;1.95;;;20.90;62.80;;;;;;11284619;26;20402;-27
2024/04/21 10:46:06;;;;;;;6.95;1.63;;;20.90;63.30;;;;;;11283920;26;19998;-28
2024/04/21 10:51:09;;;;;;;7.70;1.67;;;20.90;63.30;;;;;;11283687;26;20003;-26
2024/04/21 10:56:15;;;;;;;6.07;1.50;;;20.90;63.80;;;;;;11283455;26;20355;-25
2024/04/21 11:01:19;;;;;;;7.32;1.75;;;20.90;63.60;;;;;;11283487;26;20013;-28
2024/04/21 11:06:22;;;;;;;14.50;3.25;;;20.90;62.90;;;;;;11283157;26;19995;-26
2024/04/21 11:11:28;;;;;;;14.23;3.45;;;20.80;62.80;;;;;;11282663;26;20402;-27
2024/04/21 11:16:32;;;;;;;7.07;2.22;;;20.80;62.70;;;;;;11282816;26;20010;-27
2024/04/21 11:21:35;;;;;;;8.15;2.63;;;20.80;62.90;;;;;;11282793;26;19999;-27
2024/04/21 11:26:41;;;;;;;12.77;3.15;;;20.70;63.30;;;;;;11282504;26;20017;-26
2024/04/21 11:31:44;;;;;;;13.57;2.88;;;20.60;63.00;;;;;;11282402;26;20013;-23
2024/04/21 11:36:47;;;;;;;7.15;2.42;;;20.70;63.30;;;;;;11282359;26;20461;-27
2024/04/21 11:41:53;;;;;;;9.32;2.22;;;20.60;63.10;;;;;;11281998;26;19995;-28
2024/04/21 11:46:59;;;;;;;6.65;2.10;;;20.60;63.00;;;;;;11281793;26;20003;-27
2024/04/21 11:52:02;;;;;;;6.00;1.70;;;20.50;63.30;;;;;;11281510;26;20010;-27
2024/04/21 11:57:09;;;;;;;6.90;2.03;;;20.50;63.30;;;;;;11281376;26;20003;-27
2024/04/21 12:02:12;;;;;;;5.38;2.20;;;20.50;63.80;;;;;;11281323;26;19995;-26
2024/04/21 12:07:22;;;;;;;3.35;1.70;;;20.50;63.10;;;;;;11281092;26;19999;-27
2024/04/21 12:12:27;;;;;;;4.15;1.80;;;20.50;63.40;;;;;;11280974;26;20014;-27
2024/04/21 12:17:31;;;;;;;7.45;1.50;;;20.50;63.70;;;;;;11281268;26;20007;-25
2024/04/21 12:22:34;;;;;;;3.42;1.45;;;20.40;63.60;;;;;;11284408;26;20423;-28
2024/04/21 12:27:40;;;;;;;4.22;1.40;;;20.40;63.80;;;;;;11287928;26;20003;-28
2024/04/21 12:32:43;;;;;;;3.42;1.48;;;20.40;64.00;;;;;;11287933;26;20025;-26
2024/04/21 12:37:46;;;;;;;4.35;1.40;;;20.40;64.20;;;;;;11288041;26;20337;-26
2024/04/21 12:42:53;;;;;;;2.17;1.25;;;20.40;64.60;;;;;;11287661;26;20003;-27
2024/04/21 12:47:56;;;;;;;5.50;1.58;;;20.50;65.40;;;;;;11287470;26;19998;-28
2024/04/21 12:52:59;;;;;;;3.22;1.15;;;20.50;65.40;;;;;;11287189;26;20009;-26
2024/04/21 12:58:06;;;;;;;9.73;1.30;;;20.50;65.50;;;;;;11287019;26;20014;-27
2024/04/21 13:03:09;;;;;;;2.40;1.30;;;20.40;65.90;;;;;;11287170;26;20445;-28
2024/04/21 13:08:12;;;;;;;3.67;1.35;;;20.40;66.20;;;;;;11286801;26;20017;-27
2024/04/21 13:13:18;;;;;;;4.05;1.35;;;20.40;66.00;;;;;;11286692;26;20006;-28
2024/04/21 13:18:21;;;;;;;7.93;1.50;;;20.40;66.20;;;;;;11286538;26;20002;-27
2024/04/21 13:23:24;;;;;;;4.32;1.23;;;20.30;66.10;;;;;;11286262;26;20381;-28
2024/04/21 13:28:31;;;;;;;6.93;1.40;;;20.30;66.20;;;;;;11286709;26;20011;-26
2024/04/21 13:33:34;;;;;;;3.28;1.40;;;20.30;66.00;;;;;;11241957;26;20029;-27
2024/04/21 13:38:37;;;;;;;6.13;1.40;;;20.30;66.00;;;;;;11211431;26;20365;-28
2024/04/21 13:43:43;;;;;;;4.47;1.40;;;20.30;66.20;;;;;;11211357;26;20073;-26
2024/04/21 13:48:46;;;;;;;1.52;1.05;;;20.30;66.40;;;;;;11211380;26;20010;-28
2024/04/21 13:53:50;;;;;;;3.95;1.08;;;20.30;66.50;;;;;;11211138;26;20358;-28
2024/04/21 13:58:56;;;;;;;5.47;1.25;;;20.20;66.70;;;;;;11210821;26;20011;-26
2024/04/21 14:03:59;;;;;;;4.25;1.40;;;20.20;67.30;;;;;;11210932;26;20080;-25
2024/04/21 14:09:02;;;;;;;3.55;1.23;;;20.20;67.80;;;;;;11210633;26;20011;-29
2024/04/21 14:14:08;;;;;;;4.28;1.20;;;20.10;67.90;;;;;;11210253;26;19999;-28
2024/04/21 14:19:11;;;;;;;5.90;1.33;;;20.10;67.80;;;;;;11210227;26;19995;-27
2024/04/21 14:24:15;;;;;;;2.60;1.10;;;20.00;67.90;;;;;;11210182;26;20342;-26
2024/04/21 14:29:21;;;;;;;2.10;1.10;;;20.00;68.00;;;;;;11210190;26;20038;-28
2024/04/21 14:34:24;;;;;;;3.20;1.13;;;20.00;67.80;;;;;;11210002;26;20472;-26
2024/04/21 14:39:27;;;;;;;2.13;1.17;;;20.00;68.10;;;;;;11209818;26;20004;-32
2024/04/21 14:44:36;;;;;;;3.92;1.20;;;20.00;68.10;;;;;;11208808;26;20007;-29
2024/04/21 14:49:40;;;;;;;4.15;1.50;;;20.00;68.40;;;;;;11209732;26;20068;-26
2024/04/21 14:54:43;;;;;;;2.35;1.00;;;20.00;68.20;;;;;;11209363;26;20012;-27
2024/04/21 14:59:51;;;;;;;3.20;0.98;;;19.90;68.30;;;;;;11209264;26;20008;-30
2024/04/21 15:04:58;;;;;;;2.25;1.10;;;19.90;68.30;;;;;;11208950;26;19999;-26
2024/04/21 15:10:01;;;;;;;1.70;1.00;;;19.90;68.30;;;;;;11208848;26;20072;-28
2024/04/21 15:15:07;;;;;;;1.73;0.90;;;19.80;67.90;;;;;;11208408;26;20000;-27
2024/04/21 15:20:11;;;;;;;1.40;0.82;;;19.80;67.80;;;;;;11208594;26;20018;-26
2024/04/21 15:25:15;;;;;;;1.38;0.95;;;19.80;67.50;;;;;;11208271;26;20408;-27
2024/04/21 15:30:21;;;;;;;2.58;1.00;;;19.80;67.00;;;;;;11208301;26;20012;-27
2024/04/21 15:35:24;;;;;;;3.13;1.10;;;19.70;66.60;;;;;;11207932;26;20073;-26
2024/04/21 15:40:27;;;;;;;1.25;0.75;;;19.70;66.30;;;;;;11207641;26;20427;-28
2024/04/21 15:45:33;;;;;;;1.83;0.90;;;19.70;66.30;;;;;;11207544;26;20003;-27
2024/04/21 15:50:39;;;;;;;3.75;1.10;;;19.70;66.30;;;;;;11207942;26;20362;-26
2024/04/21 15:55:42;;;;;;;3.30;0.90;;;19.70;66.50;;;;;;11208101;26;20003;-26
2024/04/21 16:00:49;;;;;;;11.82;1.35;;;19.70;66.50;;;;;;11214389;26;20017;-25
2024/04/21 16:05:52;;;;;;;4.63;1.20;;;19.80;66.20;;;;;;11214565;26;20018;-26
2024/04/21 16:10:56;;;;;;;5.68;1.20;;;19.80;66.10;;;;;;11213936;26;20077;-26
2024/04/21 16:16:02;;;;;;;20.00;2.47;;;19.80;66.60;;;;;;11213756;26;20034;-25
2024/04/21 16:21:05;;;;;;;17.75;2.15;;;19.70;66.90;;;;;;11213955;26;20338;-24
2024/04/21 16:26:09;;;;;;;7.60;1.52;;;19.70;65.90;;;;;;11213814;26;20384;-26
2024/04/21 16:31:15;;;;;;;11.65;1.70;;;19.70;66.00;;;;;;11213778;26;20018;-25
2024/04/21 16:36:18;;;;;;;6.60;1.58;;;19.70;66.00;;;;;;11213585;26;20007;-25
2024/04/21 16:41:22;;;;;;;6.20;1.95;;;19.70;66.30;;;;;;11213658;26;20030;-25
2024/04/21 16:46:31;;;;;;;7.47;2.15;;;19.60;66.20;;;;;;11213071;26;20343;-28
2024/04/21 16:51:34;;;;;;;8.98;2.75;;;19.60;66.50;;;;;;11213675;26;19999;-30
2024/04/21 16:56:38;;;;;;;6.35;3.00;;;19.60;66.20;;;;;;11213000;26;20026;-26
2024/04/21 17:01:46;;;;;;;9.43;2.80;;;19.70;65.70;;;;;;11212730;26;20015;-28
2024/04/21 17:06:51;;;;;;;8.15;3.17;;;19.60;65.50;;;;;;11212026;26;20361;-27
2024/04/21 17:11:55;;;;;;;8.25;3.95;;;19.60;64.90;;;;;;11208134;26;20338;-28
2024/04/21 17:17:00;;;;;;;8.27;3.90;;;19.60;64.80;;;;;;11236561;26;19999;-24
2024/04/21 17:22:04;;;;;;;10.02;4.57;;;19.60;64.60;;;;;;11210400;26;20015;-26
2024/04/21 17:27:09;;;;;;;60.60;32.25;;;19.60;64.70;;;;;;11210846;26;20016;-29
2024/04/21 17:32:14;;;;;;;63.53;33.78;;;19.60;66.00;;;;;;11210914;26;19996;-27
2024/04/21 17:37:18;;;;;;;66.55;35.60;;;19.50;66.30;;;;;;11211868;26;20000;-25
2024/04/21 17:42:22;;;;;;;53.83;28.88;;;19.50;65.80;;;;;;11210032;26;20018;-27
2024/04/21 17:47:28;;;;;;;51.45;27.38;;;19.60;64.50;;;;;;11211377;26;20008;-25
2024/04/21 17:52:33;;;;;;;49.40;25.73;;;19.70;63.70;;;;;;11213349;26;20046;-25
2024/04/21 17:57:36;;;;;;;46.83;24.90;;;19.70;63.30;;;;;;11227328;26;19996;-29
2024/04/21 18:02:42;;;;;;;44.53;24.48;;;19.70;63.20;;;;;;11210047;26;20077;-26
2024/04/21 18:07:45;;;;;;;42.05;23.13;;;19.60;63.20;;;;;;11210483;26;20008;-26
2024/04/21 18:12:48;;;;;;;42.25;22.65;;;19.60;63.50;;;;;;11209950;26;20465;-28
2024/04/21 18:17:56;;;;;;;42.08;22.33;;;19.60;62.70;;;;;;11209161;26;20077;-26
2024/04/21 18:22:59;;;;;;;37.42;20.83;;;19.60;62.70;;;;;;11206020;26;20077;-26
2024/04/21 18:28:03;;;;;;;40.85;21.50;;;19.60;62.90;;;;;;11230329;26;20346;-26
2024/04/21 18:33:09;;;;;;;35.17;19.95;;;19.60;63.00;;;;;;11208808;26;20026;-25
2024/04/21 18:38:13;;;;;;;35.58;18.98;;;19.50;63.50;;;;;;11208551;26;20353;-28
2024/04/21 18:43:17;;;;;;;34.55;19.45;;;19.50;63.40;;;;;;11209667;26;20014;-22
2024/04/21 18:48:23;;;;;;;29.52;17.83;;;19.50;63.70;;;;;;11209173;26;20080;-28
2024/04/21 18:53:26;;;;;;;31.75;18.40;;;19.50;64.00;;;;;;11209041;26;20004;-26
2024/04/21 18:58:29;;;;;;;30.83;16.70;;;19.50;64.60;;;;;;11208440;26;20443;-27
2024/04/21 19:03:35;;;;;;;30.80;16.40;;;19.40;64.50;;;;;;11206604;26;20080;-26
2024/04/21 19:08:38;;;;;;;25.70;14.98;;;19.40;65.30;;;;;;11207993;26;19999;-26
2024/04/21 19:13:43;;;;;;;28.30;15.52;;;19.40;65.70;;;;;;11209146;26;20460;-29
2024/04/21 19:18:50;;;;;;;25.42;15.05;;;19.40;66.40;;;;;;11207819;26;20076;-26
2024/04/21 19:23:53;;;;;;;25.08;14.02;;;19.40;65.50;;;;;;11208682;26;20000;-31
2024/04/21 19:28:57;;;;;;;22.45;13.13;;;19.40;65.10;;;;;;11207394;26;20014;-27
2024/04/21 19:34:04;;;;;;;24.35;12.57;;;19.40;65.10;;;;;;11210385;26;20043;-27
2024/04/21 19:39:07;;;;;;;25.88;12.63;;;19.40;64.50;;;;;;11207826;26;20043;-26
2024/04/21 19:44:11;;;;;;;20.90;11.25;;;19.40;64.30;;;;;;11268559;26;20009;-27
2024/04/21 19:49:17;;;;;;;23.75;12.30;;;19.30;64.60;;;;;;11281582;26;20479;-25
2024/04/21 19:54:20;;;;;;;20.23;11.75;;;19.30;65.00;;;;;;11280664;26;20007;-26
2024/04/21 19:59:24;;;;;;;19.85;11.10;;;19.30;65.50;;;;;;11281445;26;19999;-27
2024/04/21 20:04:30;;;;;;;17.02;10.55;;;19.20;65.50;;;;;;11280044;26;20035;-27
2024/04/21 20:09:33;;;;;;;20.00;11.32;;;19.20;65.70;;;;;;11281203;26;20010;-25
2024/04/21 20:19:58;;;;;;;20.83;11.30;;;19.10;65.60;;;;;;11210039;26;20073;-26
2024/04/21 20:25:04;;;;;;;17.35;10.38;;;19.10;65.50;;;;;;11221963;26;20011;-27
2024/04/21 20:30:11;;;;;;;16.20;10.18;;;19.00;65.60;;;;;;11205997;26;20014;-26
2024/04/21 20:35:20;;;;;;;18.83;10.05;;;19.00;65.70;;;;;;11205670;26;20004;-29
2024/04/21 20:40:26;;;;;;;17.85;10.85;;;19.00;65.80;;;;;;11205847;26;20018;-27
2024/04/21 20:45:35;;;;;;;19.75;10.57;;;19.00;65.80;;;;;;11212162;26;19999;-26
2024/04/21 20:50:44;;;;;;;17.17;9.77;;;18.90;65.80;;;;;;11213998;26;20080;-30
2024/04/21 20:55:47;;;;;;;15.27;9.93;;;18.90;66.00;;;;;;11229556;26;19999;-28
2024/04/21 21:00:51;;;;;;;17.83;9.82;;;18.90;66.00;;;;;;11245427;26;20453;-26
2024/04/21 21:05:57;;;;;;;15.10;9.57;;;18.90;66.00;;;;;;11274022;26;20003;-31
2024/04/21 21:11:00;;;;;;;15.70;8.30;;;18.80;66.00;;;;;;11220956;26;20361;-29
2024/04/21 21:16:03;;;;;;;16.65;9.63;;;18.80;66.10;;;;;;11208907;26;20019;-28
2024/04/21 21:21:09;;;;;;;15.93;9.40;;;18.70;66.10;;;;;;11210145;26;20000;-27
2024/04/21 21:26:13;;;;;;;14.52;8.35;;;18.70;66.60;;;;;;11212041;26;20469;-27
2024/04/21 21:31:16;;;;;;;14.50;8.88;;;18.70;66.10;;;;;;11211470;26;19999;-26
2024/04/21 21:36:22;;;;;;;13.75;8.45;;;18.60;66.20;;;;;;11211860;26;20003;-25
2024/04/21 21:41:25;;;;;;;13.85;8.65;;;18.60;66.00;;;;;;11211600;26;20010;-27
2024/04/21 21:46:28;;;;;;;13.68;8.38;;;18.60;66.30;;;;;;11211068;26;20495;-25
2024/04/21 21:51:34;;;;;;;13.50;8.77;;;18.60;66.00;;;;;;11211515;26;20074;-24
2024/04/21 21:56:37;;;;;;;13.57;7.75;;;18.50;65.90;;;;;;11211131;26;20000;-26
2024/04/21 22:01:40;;;;;;;13.32;8.00;;;18.50;66.40;;;;;;11210845;26;20338;-29
2024/04/21 22:06:46;;;;;;;14.00;8.07;;;18.50;66.20;;;;;;11211431;26;20014;-30
2024/04/21 22:11:53;;;;;;;10.55;7.80;;;18.40;65.90;;;;;;11210729;26;20342;-26
2024/04/21 22:16:56;;;;;;;12.07;7.68;;;18.40;66.00;;;;;;11210108;26;20420;-27
2024/04/21 22:22:02;;;;;;;13.43;7.93;;;18.30;66.10;;;;;;11210503;26;20011;-28
2024/04/21 22:27:06;;;;;;;12.43;8.18;;;18.30;66.10;;;;;;11210327;26;20013;-27
2024/04/21 22:32:09;;;;;;;12.35;7.50;;;18.30;66.10;;;;;;11210396;26;20327;-28
2024/04/21 22:37:15;;;;;;;13.63;7.90;;;18.30;66.20;;;;;;11210059;26;20374;-28
2024/04/21 22:42:18;;;;;;;12.50;7.93;;;18.30;65.90;;;;;;11210152;26;20441;-27
2024/04/21 22:47:22;;;;;;;12.63;7.70;;;18.20;66.30;;;;;;11209668;26;20014;-27
2024/04/21 22:52:27;;;;;;;11.45;7.63;;;18.20;66.10;;;;;;11209589;26;20365;-25
2024/04/21 22:57:31;;;;;;;11.23;7.63;;;18.20;66.20;;;;;;11208924;26;20007;-27
2024/04/21 23:02:34;;;;;;;11.38;7.72;;;18.10;66.00;;;;;;11209261;26;20011;-25
2024/04/21 23:07:40;;;;;;;12.00;7.38;;;18.10;65.90;;;;;;11208277;26;20470;-26
2024/04/21 23:12:43;;;;;;;13.05;8.45;;;18.10;65.90;;;;;;11208562;26;20014;-28
2024/04/21 23:17:46;;;;;;;11.82;7.80;;;18.10;66.00;;;;;;11208516;26;20007;-28
2024/04/21 23:22:52;;;;;;;13.00;8.57;;;18.00;66.10;;;;;;11209205;26;20415;-27
2024/04/21 23:27:55;;;;;;;12.23;8.65;;;18.00;66.10;;;;;;11207990;26;20014;-29
2024/04/21 23:32:58;;;;;;;10.70;7.22;;;18.00;65.90;;;;;;11208152;26;20019;-27
2024/04/21 23:38:06;;;;;;;11.63;8.15;;;17.90;66.00;;;;;;11208449;26;20014;-28
2024/04/21 23:43:09;;;;;;;12.00;7.82;;;18.00;66.00;;;;;;11207586;26;20012;-27
2024/04/21 23:48:12;;;;;;;13.05;7.45;;;17.90;66.10;;;;;;11207773;26;19996;-26
2024/04/21 23:53:18;;;;;;;12.52;8.85;;;17.90;65.80;;;;;;11207593;26;20331;-26
2024/04/21 23:58:21;;;;;;;12.93;8.05;;;17.90;65.80;;;;;;11206936;26;20461;-26
